sensor_id;sensor_type;location;lat;lon;timestamp;temperature;humidity
7388;DHT22;3735;50.136;11.062;2022-07-10T00:00:40;16.00;99.90
7388;DHT22;3735;50.136;11.062;2022-07-10T00:03:06;16.00;99.90
7388;DHT22;3735;50.136;11.062;2022-07-10T00:05:32;16.00;99.90
7388;DHT22;3735;50.136;11.062;2022-07-10T00:08:02;16.00;99.90
7388;DHT22;3735;50.136;11.062;2022-07-10T00:10:28;16.00;99.90
7388;DHT22;3735;50.136;11.062;2022-07-10T00:12:55;15.90;99.90
7388;DHT22;3735;50.136;11.062;2022-07-10T00:15:22;15.90;99.90
7388;DHT22;3735;50.136;11.062;2022-07-10T00:17:48;15.90;99.90
7388;DHT22;3735;50.136;11.062;2022-07-10T00:20:15;15.80;99.90
7388;DHT22;3735;50.136;11.062;2022-07-10T00:22:41;15.90;99.90
7388;DHT22;3735;50.136;11.062;2022-07-10T00:25:10;15.90;99.90
7388;DHT22;3735;50.136;11.062;2022-07-10T00:27:37;15.80;99.90
7388;DHT22;3735;50.136;11.062;2022-07-10T00:30:03;15.70;99.90
7388;DHT22;3735;50.136;11.062;2022-07-10T00:32:29;15.60;99.90
7388;DHT22;3735;50.136;11.062;2022-07-10T00:34:55;15.60;99.90
7388;DHT22;3735;50.136;11.062;2022-07-10T00:37:21;15.50;99.90
7388;DHT22;3735;50.136;11.062;2022-07-10T00:39:47;15.50;99.90
7388;DHT22;3735;50.136;11.062;2022-07-10T00:42:14;15.50;99.90
7388;DHT22;3735;50.136;11.062;2022-07-10T00:44:42;15.40;99.90
7388;DHT22;3735;50.136;11.062;2022-07-10T00:47:09;15.50;99.90
7388;DHT22;3735;50.136;11.062;2022-07-10T00:49:38;15.50;99.90
7388;DHT22;3735;50.136;11.062;2022-07-10T00:52:10;15.40;99.90
7388;DHT22;3735;50.136;11.062;2022-07-10T00:54:42;15.40;99.90
7388;DHT22;3735;50.136;11.062;2022-07-10T00:57:10;15.30;99.90
7388;DHT22;3735;50.136;11.062;2022-07-10T00:59:38;15.30;99.90
7388;DHT22;3735;50.136;11.062;2022-07-10T01:02:04;15.10;99.90
7388;DHT22;3735;50.136;11.062;2022-07-10T01:04:31;15.00;99.90
7388;DHT22;3735;50.136;11.062;2022-07-10T01:06:59;14.80;99.90
7388;DHT22;3735;50.136;11.062;2022-07-10T01:09:25;14.60;99.90
7388;DHT22;3735;50.136;11.062;2022-07-10T01:11:51;14.40;99.90
7388;DHT22;3735;50.136;11.062;2022-07-10T01:14:17;14.20;99.90
7388;DHT22;3735;50.136;11.062;2022-07-10T01:16:43;14.10;99.90
7388;DHT22;3735;50.136;11.062;2022-07-10T01:19:09;13.90;99.90
7388;DHT22;3735;50.136;11.062;2022-07-10T01:21:36;13.70;99.90
7388;DHT22;3735;50.136;11.062;2022-07-10T01:24:07;13.50;99.90
7388;DHT22;3735;50.136;11.062;2022-07-10T01:26:35;13.30;99.90
7388;DHT22;3735;50.136;11.062;2022-07-10T01:29:04;13.10;99.90
7388;DHT22;3735;50.136;11.062;2022-07-10T01:31:31;13.00;99.90
7388;DHT22;3735;50.136;11.062;2022-07-10T01:33:59;12.90;99.90
7388;DHT22;3735;50.136;11.062;2022-07-10T01:36:28;12.80;99.90
7388;DHT22;3735;50.136;11.062;2022-07-10T01:38:58;12.70;99.90
7388;DHT22;3735;50.136;11.062;2022-07-10T01:41:25;12.60;99.90
7388;DHT22;3735;50.136;11.062;2022-07-10T01:43:52;12.40;99.90
7388;DHT22;3735;50.136;11.062;2022-07-10T01:46:19;12.30;99.90
7388;DHT22;3735;50.136;11.062;2022-07-10T01:48:45;12.20;99.90
7388;DHT22;3735;50.136;11.062;2022-07-10T01:51:11;12.00;99.90
7388;DHT22;3735;50.136;11.062;2022-07-10T01:53:38;11.90;99.90
7388;DHT22;3735;50.136;11.062;2022-07-10T01:56:07;11.80;99.90
7388;DHT22;3735;50.136;11.062;2022-07-10T01:58:34;11.80;99.90
7388;DHT22;3735;50.136;11.062;2022-07-10T02:01:02;11.90;99.90
7388;DHT22;3735;50.136;11.062;2022-07-10T02:03:29;11.80;99.90
7388;DHT22;3735;50.136;11.062;2022-07-10T02:06:13;11.80;99.90
7388;DHT22;3735;50.136;11.062;2022-07-10T02:08:39;11.80;99.90
7388;DHT22;3735;50.136;11.062;2022-07-10T02:11:05;11.80;99.90
7388;DHT22;3735;50.136;11.062;2022-07-10T02:13:31;11.70;99.90
7388;DHT22;3735;50.136;11.062;2022-07-10T02:15:57;11.70;99.90
7388;DHT22;3735;50.136;11.062;2022-07-10T02:18:23;11.60;99.90
7388;DHT22;3735;50.136;11.062;2022-07-10T02:20:51;11.60;99.90
7388;DHT22;3735;50.136;11.062;2022-07-10T02:23:17;11.70;99.90
7388;DHT22;3735;50.136;11.062;2022-07-10T02:25:43;11.70;99.90
7388;DHT22;3735;50.136;11.062;2022-07-10T02:28:09;11.70;99.90
7388;DHT22;3735;50.136;11.062;2022-07-10T02:30:36;11.70;99.90
7388;DHT22;3735;50.136;11.062;2022-07-10T02:33:02;11.60;99.90
7388;DHT22;3735;50.136;11.062;2022-07-10T02:35:28;11.60;99.90
7388;DHT22;3735;50.136;11.062;2022-07-10T02:37:54;11.60;99.90
7388;DHT22;3735;50.136;11.062;2022-07-10T02:40:19;11.40;99.90
7388;DHT22;3735;50.136;11.062;2022-07-10T02:42:45;11.40;99.90
7388;DHT22;3735;50.136;11.062;2022-07-10T02:45:11;11.40;99.90
7388;DHT22;3735;50.136;11.062;2022-07-10T02:47:37;11.30;99.90
7388;DHT22;3735;50.136;11.062;2022-07-10T02:50:03;11.20;99.90
7388;DHT22;3735;50.136;11.062;2022-07-10T02:52:29;11.30;99.90
7388;DHT22;3735;50.136;11.062;2022-07-10T02:54:56;11.30;99.90
7388;DHT22;3735;50.136;11.062;2022-07-10T02:57:23;11.20;99.90
7388;DHT22;3735;50.136;11.062;2022-07-10T02:59:49;11.30;99.90
7388;DHT22;3735;50.136;11.062;2022-07-10T03:02:15;11.20;99.90
7388;DHT22;3735;50.136;11.062;2022-07-10T03:04:41;11.20;99.90
7388;DHT22;3735;50.136;11.062;2022-07-10T03:07:07;11.20;99.90
7388;DHT22;3735;50.136;11.062;2022-07-10T03:09:33;11.20;99.90
7388;DHT22;3735;50.136;11.062;2022-07-10T03:11:59;11.10;99.90
7388;DHT22;3735;50.136;11.062;2022-07-10T03:14:25;11.20;99.90
7388;DHT22;3735;50.136;11.062;2022-07-10T03:16:51;11.20;99.90
7388;DHT22;3735;50.136;11.062;2022-07-10T03:19:17;11.30;99.90
7388;DHT22;3735;50.136;11.062;2022-07-10T03:21:43;11.40;99.90
7388;DHT22;3735;50.136;11.062;2022-07-10T03:24:09;11.50;99.90
7388;DHT22;3735;50.136;11.062;2022-07-10T03:26:35;11.60;99.90
7388;DHT22;3735;50.136;11.062;2022-07-10T03:29:01;11.70;99.90
7388;DHT22;3735;50.136;11.062;2022-07-10T03:31:27;11.80;99.90
7388;DHT22;3735;50.136;11.062;2022-07-10T03:33:52;11.80;99.90
7388;DHT22;3735;50.136;11.062;2022-07-10T03:36:19;11.80;99.90
7388;DHT22;3735;50.136;11.062;2022-07-10T03:38:44;11.90;99.90
7388;DHT22;3735;50.136;11.062;2022-07-10T03:41:12;12.00;99.90
7388;DHT22;3735;50.136;11.062;2022-07-10T03:43:41;12.10;99.90
7388;DHT22;3735;50.136;11.062;2022-07-10T03:46:07;12.20;99.90
7388;DHT22;3735;50.136;11.062;2022-07-10T03:48:33;12.20;99.90
7388;DHT22;3735;50.136;11.062;2022-07-10T03:50:59;12.30;99.90
7388;DHT22;3735;50.136;11.062;2022-07-10T03:53:25;12.40;99.90
7388;DHT22;3735;50.136;11.062;2022-07-10T03:55:52;12.40;99.90
7388;DHT22;3735;50.136;11.062;2022-07-10T03:58:19;12.40;99.90
7388;DHT22;3735;50.136;11.062;2022-07-10T04:00:45;12.50;99.90
7388;DHT22;3735;50.136;11.062;2022-07-10T04:03:12;12.60;99.90
7388;DHT22;3735;50.136;11.062;2022-07-10T04:05:39;12.70;99.90
7388;DHT22;3735;50.136;11.062;2022-07-10T04:08:05;12.80;99.90
7388;DHT22;3735;50.136;11.062;2022-07-10T04:10:32;12.90;99.90
7388;DHT22;3735;50.136;11.062;2022-07-10T04:12:58;13.00;99.90
7388;DHT22;3735;50.136;11.062;2022-07-10T04:15:25;13.10;99.90
7388;DHT22;3735;50.136;11.062;2022-07-10T04:17:51;13.20;99.90
7388;DHT22;3735;50.136;11.062;2022-07-10T04:20:18;13.30;99.90
7388;DHT22;3735;50.136;11.062;2022-07-10T04:22:44;13.40;99.90
7388;DHT22;3735;50.136;11.062;2022-07-10T04:25:11;13.50;99.90
7388;DHT22;3735;50.136;11.062;2022-07-10T04:27:37;13.50;99.90
7388;DHT22;3735;50.136;11.062;2022-07-10T04:30:04;13.60;99.90
7388;DHT22;3735;50.136;11.062;2022-07-10T04:32:31;13.60;99.90
7388;DHT22;3735;50.136;11.062;2022-07-10T04:34:57;13.70;99.90
7388;DHT22;3735;50.136;11.062;2022-07-10T04:37:24;13.80;99.90
7388;DHT22;3735;50.136;11.062;2022-07-10T04:39:49;13.90;99.90
7388;DHT22;3735;50.136;11.062;2022-07-10T04:42:15;14.00;99.90
7388;DHT22;3735;50.136;11.062;2022-07-10T04:44:42;14.00;99.90
7388;DHT22;3735;50.136;11.062;2022-07-10T04:47:08;14.00;99.90
7388;DHT22;3735;50.136;11.062;2022-07-10T04:49:34;14.10;99.90
7388;DHT22;3735;50.136;11.062;2022-07-10T04:52:00;14.20;99.90
7388;DHT22;3735;50.136;11.062;2022-07-10T04:54:26;14.20;99.90
7388;DHT22;3735;50.136;11.062;2022-07-10T04:56:52;14.20;99.90
7388;DHT22;3735;50.136;11.062;2022-07-10T04:59:18;14.30;99.90
7388;DHT22;3735;50.136;11.062;2022-07-10T05:01:43;14.30;99.90
7388;DHT22;3735;50.136;11.062;2022-07-10T05:04:10;14.40;99.90
7388;DHT22;3735;50.136;11.062;2022-07-10T05:06:36;14.50;99.90
7388;DHT22;3735;50.136;11.062;2022-07-10T05:09:02;14.60;99.90
7388;DHT22;3735;50.136;11.062;2022-07-10T05:11:29;14.70;99.90
7388;DHT22;3735;50.136;11.062;2022-07-10T05:13:57;14.80;99.90
7388;DHT22;3735;50.136;11.062;2022-07-10T05:16:23;15.00;99.90
7388;DHT22;3735;50.136;11.062;2022-07-10T05:18:49;15.00;99.90
7388;DHT22;3735;50.136;11.062;2022-07-10T05:21:14;15.10;99.90
7388;DHT22;3735;50.136;11.062;2022-07-10T05:23:40;15.00;99.90
7388;DHT22;3735;50.136;11.062;2022-07-10T05:26:09;14.90;99.90
7388;DHT22;3735;50.136;11.062;2022-07-10T05:28:38;14.80;99.90
7388;DHT22;3735;50.136;11.062;2022-07-10T05:31:04;14.70;99.90
7388;DHT22;3735;50.136;11.062;2022-07-10T05:33:30;14.60;99.90
7388;DHT22;3735;50.136;11.062;2022-07-10T05:35:56;14.70;99.90
7388;DHT22;3735;50.136;11.062;2022-07-10T05:38:22;14.40;99.90
7388;DHT22;3735;50.136;11.062;2022-07-10T05:40:47;14.30;99.90
7388;DHT22;3735;50.136;11.062;2022-07-10T05:43:14;14.30;99.90
7388;DHT22;3735;50.136;11.062;2022-07-10T05:45:40;14.60;99.90
7388;DHT22;3735;50.136;11.062;2022-07-10T05:48:05;14.90;99.90
7388;DHT22;3735;50.136;11.062;2022-07-10T05:50:31;15.30;99.90
7388;DHT22;3735;50.136;11.062;2022-07-10T05:52:57;16.30;99.90
7388;DHT22;3735;50.136;11.062;2022-07-10T05:55:23;17.10;99.90
7388;DHT22;3735;50.136;11.062;2022-07-10T05:57:49;17.90;99.90
7388;DHT22;3735;50.136;11.062;2022-07-10T06:00:15;18.60;99.90
7388;DHT22;3735;50.136;11.062;2022-07-10T06:02:41;18.70;99.90
7388;DHT22;3735;50.136;11.062;2022-07-10T06:05:08;18.90;99.90
7388;DHT22;3735;50.136;11.062;2022-07-10T06:07:34;18.60;99.90
7388;DHT22;3735;50.136;11.062;2022-07-10T06:10:01;18.20;99.90
7388;DHT22;3735;50.136;11.062;2022-07-10T06:12:28;18.00;99.90
7388;DHT22;3735;50.136;11.062;2022-07-10T06:14:54;17.80;99.90
7388;DHT22;3735;50.136;11.062;2022-07-10T06:17:19;17.80;99.90
7388;DHT22;3735;50.136;11.062;2022-07-10T06:19:45;17.40;99.90
7388;DHT22;3735;50.136;11.062;2022-07-10T06:22:11;17.10;99.90
7388;DHT22;3735;50.136;11.062;2022-07-10T06:24:56;16.90;99.90
7388;DHT22;3735;50.136;11.062;2022-07-10T06:27:30;16.80;99.90
7388;DHT22;3735;50.136;11.062;2022-07-10T06:29:57;16.60;99.90
7388;DHT22;3735;50.136;11.062;2022-07-10T06:32:23;16.60;99.90
7388;DHT22;3735;50.136;11.062;2022-07-10T06:34:51;16.40;99.90
7388;DHT22;3735;50.136;11.062;2022-07-10T06:37:19;16.20;99.90
7388;DHT22;3735;50.136;11.062;2022-07-10T06:39:46;16.10;99.90
7388;DHT22;3735;50.136;11.062;2022-07-10T06:42:16;16.10;99.90
7388;DHT22;3735;50.136;11.062;2022-07-10T06:44:42;16.10;99.90
7388;DHT22;3735;50.136;11.062;2022-07-10T06:47:10;16.10;99.90
7388;DHT22;3735;50.136;11.062;2022-07-10T06:49:56;16.40;99.90
7388;DHT22;3735;50.136;11.062;2022-07-10T06:52:23;17.70;99.90
7388;DHT22;3735;50.136;11.062;2022-07-10T06:54:49;19.40;99.90
7388;DHT22;3735;50.136;11.062;2022-07-10T06:57:16;20.80;99.90
7388;DHT22;3735;50.136;11.062;2022-07-10T06:59:44;21.30;99.90
7388;DHT22;3735;50.136;11.062;2022-07-10T07:02:10;21.10;99.90
7388;DHT22;3735;50.136;11.062;2022-07-10T07:04:35;20.80;99.90
7388;DHT22;3735;50.136;11.062;2022-07-10T07:07:02;20.90;99.90
7388;DHT22;3735;50.136;11.062;2022-07-10T07:09:28;20.80;99.90
7388;DHT22;3735;50.136;11.062;2022-07-10T07:11:54;20.60;99.90
7388;DHT22;3735;50.136;11.062;2022-07-10T07:14:20;20.00;99.90
7388;DHT22;3735;50.136;11.062;2022-07-10T07:16:46;19.60;99.90
7388;DHT22;3735;50.136;11.062;2022-07-10T07:19:22;18.80;99.90
7388;DHT22;3735;50.136;11.062;2022-07-10T07:21:57;18.20;99.90
7388;DHT22;3735;50.136;11.062;2022-07-10T07:24:45;17.80;99.90
7388;DHT22;3735;50.136;11.062;2022-07-10T07:27:11;17.50;99.90
7388;DHT22;3735;50.136;11.062;2022-07-10T07:29:37;17.30;99.90
7388;DHT22;3735;50.136;11.062;2022-07-10T07:32:04;17.20;99.90
7388;DHT22;3735;50.136;11.062;2022-07-10T07:34:30;17.10;99.90
7388;DHT22;3735;50.136;11.062;2022-07-10T07:36:58;16.90;99.90
7388;DHT22;3735;50.136;11.062;2022-07-10T07:39:24;16.80;99.90
7388;DHT22;3735;50.136;11.062;2022-07-10T07:41:50;16.90;99.90
7388;DHT22;3735;50.136;11.062;2022-07-10T07:44:16;16.90;99.90
7388;DHT22;3735;50.136;11.062;2022-07-10T07:46:43;17.10;99.90
7388;DHT22;3735;50.136;11.062;2022-07-10T07:49:10;17.10;99.90
7388;DHT22;3735;50.136;11.062;2022-07-10T07:51:36;17.00;99.90
7388;DHT22;3735;50.136;11.062;2022-07-10T07:54:01;16.90;99.90
7388;DHT22;3735;50.136;11.062;2022-07-10T07:56:27;16.70;99.90
7388;DHT22;3735;50.136;11.062;2022-07-10T07:58:53;16.60;99.90
7388;DHT22;3735;50.136;11.062;2022-07-10T08:01:18;16.40;99.90
7388;DHT22;3735;50.136;11.062;2022-07-10T08:03:45;16.40;99.90
7388;DHT22;3735;50.136;11.062;2022-07-10T08:06:11;16.40;99.90
7388;DHT22;3735;50.136;11.062;2022-07-10T08:08:37;16.40;99.90
7388;DHT22;3735;50.136;11.062;2022-07-10T08:11:03;16.30;99.90
7388;DHT22;3735;50.136;11.062;2022-07-10T08:13:29;16.30;99.90
7388;DHT22;3735;50.136;11.062;2022-07-10T08:15:54;16.30;99.90
7388;DHT22;3735;50.136;11.062;2022-07-10T08:18:20;16.30;99.90
7388;DHT22;3735;50.136;11.062;2022-07-10T08:20:46;16.40;99.90
7388;DHT22;3735;50.136;11.062;2022-07-10T08:23:12;16.50;99.90
7388;DHT22;3735;50.136;11.062;2022-07-10T08:25:38;16.70;99.90
7388;DHT22;3735;50.136;11.062;2022-07-10T08:28:04;16.90;99.90
7388;DHT22;3735;50.136;11.062;2022-07-10T08:30:35;17.20;99.90
7388;DHT22;3735;50.136;11.062;2022-07-10T08:33:01;17.50;99.90
7388;DHT22;3735;50.136;11.062;2022-07-10T08:35:27;17.70;99.90
7388;DHT22;3735;50.136;11.062;2022-07-10T08:37:52;17.70;99.90
7388;DHT22;3735;50.136;11.062;2022-07-10T08:40:21;18.00;99.90
7388;DHT22;3735;50.136;11.062;2022-07-10T08:42:47;18.10;99.90
7388;DHT22;3735;50.136;11.062;2022-07-10T08:45:14;18.30;99.90
7388;DHT22;3735;50.136;11.062;2022-07-10T08:47:40;18.60;99.90
7388;DHT22;3735;50.136;11.062;2022-07-10T08:50:17;19.10;99.90
7388;DHT22;3735;50.136;11.062;2022-07-10T08:52:57;19.30;99.90
7388;DHT22;3735;50.136;11.062;2022-07-10T08:55:27;19.50;99.90
7388;DHT22;3735;50.136;11.062;2022-07-10T08:57:54;19.50;99.90
7388;DHT22;3735;50.136;11.062;2022-07-10T09:00:22;19.60;99.90
7388;DHT22;3735;50.136;11.062;2022-07-10T09:02:48;19.60;99.90
7388;DHT22;3735;50.136;11.062;2022-07-10T09:05:14;19.80;99.90
7388;DHT22;3735;50.136;11.062;2022-07-10T09:07:40;19.80;99.90
7388;DHT22;3735;50.136;11.062;2022-07-10T09:10:10;19.60;99.90
7388;DHT22;3735;50.136;11.062;2022-07-10T09:13:00;19.60;99.90
7388;DHT22;3735;50.136;11.062;2022-07-10T09:15:31;19.50;99.90
7388;DHT22;3735;50.136;11.062;2022-07-10T09:18:00;19.30;99.90
7388;DHT22;3735;50.136;11.062;2022-07-10T09:23:15;19.30;99.90
7388;DHT22;3735;50.136;11.062;2022-07-10T09:25:44;19.10;99.90
7388;DHT22;3735;50.136;11.062;2022-07-10T09:28:13;19.00;99.90
7388;DHT22;3735;50.136;11.062;2022-07-10T09:30:42;18.90;99.90
7388;DHT22;3735;50.136;11.062;2022-07-10T09:33:28;19.10;99.90
7388;DHT22;3735;50.136;11.062;2022-07-10T09:36:00;19.30;99.90
7388;DHT22;3735;50.136;11.062;2022-07-10T09:41:21;19.30;99.90
7388;DHT22;3735;50.136;11.062;2022-07-10T09:44:00;19.30;99.90
7388;DHT22;3735;50.136;11.062;2022-07-10T09:46:36;19.50;99.90
7388;DHT22;3735;50.136;11.062;2022-07-10T09:49:28;19.60;99.90
7388;DHT22;3735;50.136;11.062;2022-07-10T09:51:55;19.70;99.90
7388;DHT22;3735;50.136;11.062;2022-07-10T09:54:22;20.10;99.90
7388;DHT22;3735;50.136;11.062;2022-07-10T09:56:49;20.30;99.90
7388;DHT22;3735;50.136;11.062;2022-07-10T09:59:20;20.20;99.90
7388;DHT22;3735;50.136;11.062;2022-07-10T10:01:48;19.70;99.90
7388;DHT22;3735;50.136;11.062;2022-07-10T10:04:19;19.30;99.90
7388;DHT22;3735;50.136;11.062;2022-07-10T10:06:51;18.90;99.90
7388;DHT22;3735;50.136;11.062;2022-07-10T10:12:10;18.80;99.90
7388;DHT22;3735;50.136;11.062;2022-07-10T10:14:41;19.60;99.90
7388;DHT22;3735;50.136;11.062;2022-07-10T10:17:10;20.90;99.90
7388;DHT22;3735;50.136;11.062;2022-07-10T10:19:38;21.90;99.90
7388;DHT22;3735;50.136;11.062;2022-07-10T10:22:24;22.90;99.90
7388;DHT22;3735;50.136;11.062;2022-07-10T10:24:52;23.20;99.90
7388;DHT22;3735;50.136;11.062;2022-07-10T10:27:20;23.00;99.90
7388;DHT22;3735;50.136;11.062;2022-07-10T10:29:48;22.70;99.90
7388;DHT22;3735;50.136;11.062;2022-07-10T10:32:15;22.60;99.90
7388;DHT22;3735;50.136;11.062;2022-07-10T10:34:43;23.20;99.90
7388;DHT22;3735;50.136;11.062;2022-07-10T10:37:34;24.70;99.90
7388;DHT22;3735;50.136;11.062;2022-07-10T10:40:08;26.50;91.20
7388;DHT22;3735;50.136;11.062;2022-07-10T10:42:36;27.50;70.90
7388;DHT22;3735;50.136;11.062;2022-07-10T10:47:58;26.40;74.00
7388;DHT22;3735;50.136;11.062;2022-07-10T10:53:32;25.80;90.20
7388;DHT22;3735;50.136;11.062;2022-07-10T10:58:44;24.50;99.90
7388;DHT22;3735;50.136;11.062;2022-07-10T11:06:49;22.10;99.90
7388;DHT22;3735;50.136;11.062;2022-07-10T11:09:32;21.30;99.90
7388;DHT22;3735;50.136;11.062;2022-07-10T11:14:54;20.60;99.90
7388;DHT22;3735;50.136;11.062;2022-07-10T11:17:27;20.70;99.90
7388;DHT22;3735;50.136;11.062;2022-07-10T11:19:53;21.40;99.90
7388;DHT22;3735;50.136;11.062;2022-07-10T11:25:31;22.50;99.90
7388;DHT22;3735;50.136;11.062;2022-07-10T11:28:09;23.10;99.90
7388;DHT22;3735;50.136;11.062;2022-07-10T11:30:50;23.30;99.90
7388;DHT22;3735;50.136;11.062;2022-07-10T11:33:17;23.00;99.90
7388;DHT22;3735;50.136;11.062;2022-07-10T11:35:48;22.30;99.90
7388;DHT22;3735;50.136;11.062;2022-07-10T11:38:26;21.50;99.90
7388;DHT22;3735;50.136;11.062;2022-07-10T11:40:52;20.90;99.90
7388;DHT22;3735;50.136;11.062;2022-07-10T11:43:20;19.90;99.90
7388;DHT22;3735;50.136;11.062;2022-07-10T11:45:49;19.10;99.90
7388;DHT22;3735;50.136;11.062;2022-07-10T11:48:17;18.60;99.90
7388;DHT22;3735;50.136;11.062;2022-07-10T11:50:44;18.50;99.90
7388;DHT22;3735;50.136;11.062;2022-07-10T11:53:10;18.70;99.90
7388;DHT22;3735;50.136;11.062;2022-07-10T11:55:37;19.20;99.90
7388;DHT22;3735;50.136;11.062;2022-07-10T11:58:18;20.60;99.90
7388;DHT22;3735;50.136;11.062;2022-07-10T12:01:00;22.30;99.90
7388;DHT22;3735;50.136;11.062;2022-07-10T12:03:30;25.00;99.90
7388;DHT22;3735;50.136;11.062;2022-07-10T12:06:02;26.70;97.50
7388;DHT22;3735;50.136;11.062;2022-07-10T12:08:29;27.20;88.30
7388;DHT22;3735;50.136;11.062;2022-07-10T12:10:55;28.10;75.30
7388;DHT22;3735;50.136;11.062;2022-07-10T12:13:21;28.80;64.50
7388;DHT22;3735;50.136;11.062;2022-07-10T12:15:47;28.70;67.80
7388;DHT22;3735;50.136;11.062;2022-07-10T12:18:20;28.20;68.90
7388;DHT22;3735;50.136;11.062;2022-07-10T12:20:49;27.50;66.40
7388;DHT22;3735;50.136;11.062;2022-07-10T12:23:16;26.70;72.60
7388;DHT22;3735;50.136;11.062;2022-07-10T12:25:45;25.90;86.40
7388;DHT22;3735;50.136;11.062;2022-07-10T12:28:13;25.30;89.50
7388;DHT22;3735;50.136;11.062;2022-07-10T12:30:41;24.70;97.40
7388;DHT22;3735;50.136;11.062;2022-07-10T12:33:11;24.30;99.90
7388;DHT22;3735;50.136;11.062;2022-07-10T12:35:54;23.60;99.90
7388;DHT22;3735;50.136;11.062;2022-07-10T12:38:26;22.60;99.90
7388;DHT22;3735;50.136;11.062;2022-07-10T12:41:11;21.80;99.90
7388;DHT22;3735;50.136;11.062;2022-07-10T12:43:39;21.10;99.90
7388;DHT22;3735;50.136;11.062;2022-07-10T12:49:08;21.00;99.90
7388;DHT22;3735;50.136;11.062;2022-07-10T12:51:47;21.60;99.90
7388;DHT22;3735;50.136;11.062;2022-07-10T12:54:32;22.20;99.90
7388;DHT22;3735;50.136;11.062;2022-07-10T12:56:59;22.40;99.90
7388;DHT22;3735;50.136;11.062;2022-07-10T12:59:28;22.50;99.90
7388;DHT22;3735;50.136;11.062;2022-07-10T13:01:55;22.70;99.90
7388;DHT22;3735;50.136;11.062;2022-07-10T13:04:27;22.70;99.90
7388;DHT22;3735;50.136;11.062;2022-07-10T13:06:53;23.10;99.90
7388;DHT22;3735;50.136;11.062;2022-07-10T13:09:24;24.90;99.90
7388;DHT22;3735;50.136;11.062;2022-07-10T13:11:52;26.40;93.50
7388;DHT22;3735;50.136;11.062;2022-07-10T13:14:20;26.30;79.60
7388;DHT22;3735;50.136;11.062;2022-07-10T13:16:46;26.60;70.70
7388;DHT22;3735;50.136;11.062;2022-07-10T13:19:13;26.70;68.30
7388;DHT22;3735;50.136;11.062;2022-07-10T13:21:39;26.50;70.10
7388;DHT22;3735;50.136;11.062;2022-07-10T13:24:05;26.30;78.00
7388;DHT22;3735;50.136;11.062;2022-07-10T13:26:32;26.10;89.80
7388;DHT22;3735;50.136;11.062;2022-07-10T13:28:58;25.60;93.00
7388;DHT22;3735;50.136;11.062;2022-07-10T13:31:25;24.90;99.90
7388;DHT22;3735;50.136;11.062;2022-07-10T13:33:51;24.50;99.90
7388;DHT22;3735;50.136;11.062;2022-07-10T13:36:17;24.30;99.90
7388;DHT22;3735;50.136;11.062;2022-07-10T13:38:43;24.50;99.90
7388;DHT22;3735;50.136;11.062;2022-07-10T13:41:09;24.50;99.40
7388;DHT22;3735;50.136;11.062;2022-07-10T13:43:35;24.40;93.20
7388;DHT22;3735;50.136;11.062;2022-07-10T13:46:01;24.40;96.10
7388;DHT22;3735;50.136;11.062;2022-07-10T13:48:28;24.80;96.70
7388;DHT22;3735;50.136;11.062;2022-07-10T13:50:54;25.40;91.50
7388;DHT22;3735;50.136;11.062;2022-07-10T13:53:20;26.70;75.60
7388;DHT22;3735;50.136;11.062;2022-07-10T13:55:47;27.40;69.30
7388;DHT22;3735;50.136;11.062;2022-07-10T13:58:14;27.30;62.90
7388;DHT22;3735;50.136;11.062;2022-07-10T14:00:41;26.50;66.00
7388;DHT22;3735;50.136;11.062;2022-07-10T14:03:07;26.10;76.00
7388;DHT22;3735;50.136;11.062;2022-07-10T14:05:33;26.30;70.70
7388;DHT22;3735;50.136;11.062;2022-07-10T14:07:59;26.70;73.00
7388;DHT22;3735;50.136;11.062;2022-07-10T14:10:26;27.90;64.30
7388;DHT22;3735;50.136;11.062;2022-07-10T14:12:53;29.00;47.10
7388;DHT22;3735;50.136;11.062;2022-07-10T14:15:19;28.00;48.70
7388;DHT22;3735;50.136;11.062;2022-07-10T14:17:45;27.60;53.40
7388;DHT22;3735;50.136;11.062;2022-07-10T14:20:11;26.90;57.30
7388;DHT22;3735;50.136;11.062;2022-07-10T14:22:37;27.10;53.30
7388;DHT22;3735;50.136;11.062;2022-07-10T14:25:05;27.90;51.40
7388;DHT22;3735;50.136;11.062;2022-07-10T14:27:34;29.10;50.40
7388;DHT22;3735;50.136;11.062;2022-07-10T14:30:00;29.30;42.10
7388;DHT22;3735;50.136;11.062;2022-07-10T14:32:26;28.80;45.30
7388;DHT22;3735;50.136;11.062;2022-07-10T14:34:52;28.10;48.10
7388;DHT22;3735;50.136;11.062;2022-07-10T14:37:17;28.60;49.50
7388;DHT22;3735;50.136;11.062;2022-07-10T14:39:43;28.50;45.20
7388;DHT22;3735;50.136;11.062;2022-07-10T14:42:11;28.40;44.90
7388;DHT22;3735;50.136;11.062;2022-07-10T14:44:38;28.30;44.80
7388;DHT22;3735;50.136;11.062;2022-07-10T14:47:04;27.50;49.00
7388;DHT22;3735;50.136;11.062;2022-07-10T14:49:30;27.50;47.70
7388;DHT22;3735;50.136;11.062;2022-07-10T14:51:56;28.40;43.30
7388;DHT22;3735;50.136;11.062;2022-07-10T14:54:22;28.40;42.90
7388;DHT22;3735;50.136;11.062;2022-07-10T14:56:47;27.70;42.80
7388;DHT22;3735;50.136;11.062;2022-07-10T14:59:13;27.70;44.20
7388;DHT22;3735;50.136;11.062;2022-07-10T15:01:39;28.30;44.60
7388;DHT22;3735;50.136;11.062;2022-07-10T15:04:05;27.70;44.20
7388;DHT22;3735;50.136;11.062;2022-07-10T15:06:30;27.50;44.70
7388;DHT22;3735;50.136;11.062;2022-07-10T15:08:57;26.70;47.80
7388;DHT22;3735;50.136;11.062;2022-07-10T15:11:23;25.60;51.30
7388;DHT22;3735;50.136;11.062;2022-07-10T15:13:51;24.50;52.00
7388;DHT22;3735;50.136;11.062;2022-07-10T15:16:18;24.30;62.60
7388;DHT22;3735;50.136;11.062;2022-07-10T15:18:44;24.60;61.50
7388;DHT22;3735;50.136;11.062;2022-07-10T15:21:11;24.50;68.90
7388;DHT22;3735;50.136;11.062;2022-07-10T15:23:37;24.20;66.60
7388;DHT22;3735;50.136;11.062;2022-07-10T15:26:03;23.90;68.60
7388;DHT22;3735;50.136;11.062;2022-07-10T15:28:30;23.70;74.70
7388;DHT22;3735;50.136;11.062;2022-07-10T15:30:56;23.50;78.20
7388;DHT22;3735;50.136;11.062;2022-07-10T15:33:22;23.20;90.00
7388;DHT22;3735;50.136;11.062;2022-07-10T15:35:48;23.00;88.50
7388;DHT22;3735;50.136;11.062;2022-07-10T15:38:13;22.90;91.50
7388;DHT22;3735;50.136;11.062;2022-07-10T15:40:40;22.40;91.20
7388;DHT22;3735;50.136;11.062;2022-07-10T15:43:06;22.30;93.70
7388;DHT22;3735;50.136;11.062;2022-07-10T15:45:33;22.50;98.50
7388;DHT22;3735;50.136;11.062;2022-07-10T15:47:59;22.50;99.90
7388;DHT22;3735;50.136;11.062;2022-07-10T15:50:25;23.50;92.20
7388;DHT22;3735;50.136;11.062;2022-07-10T15:52:51;23.80;89.00
7388;DHT22;3735;50.136;11.062;2022-07-10T15:55:16;23.50;92.80
7388;DHT22;3735;50.136;11.062;2022-07-10T15:57:42;23.30;99.90
7388;DHT22;3735;50.136;11.062;2022-07-10T16:00:09;23.30;96.20
7388;DHT22;3735;50.136;11.062;2022-07-10T16:02:36;23.30;96.80
7388;DHT22;3735;50.136;11.062;2022-07-10T16:05:05;23.10;97.60
7388;DHT22;3735;50.136;11.062;2022-07-10T16:07:31;22.70;97.00
7388;DHT22;3735;50.136;11.062;2022-07-10T16:09:57;21.90;99.90
7388;DHT22;3735;50.136;11.062;2022-07-10T16:12:23;21.60;99.90
7388;DHT22;3735;50.136;11.062;2022-07-10T16:14:49;21.40;99.90
7388;DHT22;3735;50.136;11.062;2022-07-10T16:17:16;21.10;99.90
7388;DHT22;3735;50.136;11.062;2022-07-10T16:19:42;20.90;99.90